sensor_id;sensor_type;location;lat;lon;timestamp;pressure;altitude;pressure_sealevel;temperature;humidity
19208;BME280;9737;59.466;18.036;2024-01-15T00:00:09;104632.56;;;-3.96;81.52
19208;BME280;9737;59.466;18.036;2024-01-15T00:02:39;104605.41;;;-4.01;81.44
19208;BME280;9737;59.466;18.036;2024-01-15T00:05:07;104598.25;;;-4.06;81.46
19208;BME280;9737;59.466;18.036;2024-01-15T00:07:35;104598.44;;;-4.02;81.55
19208;BME280;9737;59.466;18.036;2024-01-15T00:10:03;104594.66;;;-4.08;81.42
19208;BME280;9737;59.466;18.036;2024-01-15T00:12:32;104579.94;;;-4.07;81.43
19208;BME280;9737;59.466;18.036;2024-01-15T00:15:00;104614.13;;;-4.01;81.53
19208;BME280;9737;59.466;18.036;2024-01-15T00:17:28;104586.03;;;-4.07;81.51
19208;BME280;9737;59.466;18.036;2024-01-15T00:19:57;104576.38;;;-4.09;81.47
19208;BME280;9737;59.466;18.036;2024-01-15T00:22:25;104567.69;;;-4.10;81.32
19208;BME280;9737;59.466;18.036;2024-01-15T00:24:53;104544.69;;;-4.18;81.39
19208;BME280;9737;59.466;18.036;2024-01-15T00:27:21;104541.13;;;-4.20;81.41
19208;BME280;9737;59.466;18.036;2024-01-15T00:29:50;104559.66;;;-4.14;81.48
19208;BME280;9737;59.466;18.036;2024-01-15T00:32:18;104540.38;;;-4.18;81.41
19208;BME280;9737;59.466;18.036;2024-01-15T00:34:46;104536.81;;;-4.20;81.46
19208;BME280;9737;59.466;18.036;2024-01-15T00:37:16;104486.38;;;-4.40;81.35
19208;BME280;9737;59.466;18.036;2024-01-15T00:39:44;104522.75;;;-4.23;81.48
19208;BME280;9737;59.466;18.036;2024-01-15T00:42:12;104535.03;;;-4.21;81.46
19208;BME280;9737;59.466;18.036;2024-01-15T00:44:40;104542.91;;;-4.19;81.47
19208;BME280;9737;59.466;18.036;2024-01-15T00:47:08;104528.03;;;-4.22;81.53
19208;BME280;9737;59.466;18.036;2024-01-15T00:49:36;104516.59;;;-4.25;81.43
19208;BME280;9737;59.466;18.036;2024-01-15T00:52:04;104531.47;;;-4.23;81.58
19208;BME280;9737;59.466;18.036;2024-01-15T00:54:34;104528.03;;;-4.22;81.45
19208;BME280;9737;59.466;18.036;2024-01-15T00:57:03;104529.75;;;-4.22;81.48
19208;BME280;9737;59.466;18.036;2024-01-15T00:59:31;104482.28;;;-4.34;81.57
19208;BME280;9737;59.466;18.036;2024-01-15T01:01:58;104504.34;;;-4.28;81.32
19208;BME280;9737;59.466;18.036;2024-01-15T01:04:27;104488.66;;;-4.29;81.46
19208;BME280;9737;59.466;18.036;2024-01-15T01:06:55;104511.41;;;-4.25;81.55
19208;BME280;9737;59.466;18.036;2024-01-15T01:09:23;104529.84;;;-4.21;81.57
19208;BME280;9737;59.466;18.036;2024-01-15T01:11:52;104524.47;;;-4.24;81.45
19208;BME280;9737;59.466;18.036;2024-01-15T01:14:20;104499.13;;;-4.28;81.52
19208;BME280;9737;59.466;18.036;2024-01-15T01:16:48;104493.84;;;-4.29;81.48
19208;BME280;9737;59.466;18.036;2024-01-15T01:19:16;104512.13;;;-4.28;81.43
19208;BME280;9737;59.466;18.036;2024-01-15T01:21:45;104510.50;;;-4.26;81.64
19208;BME280;9737;59.466;18.036;2024-01-15T01:24:13;104490.28;;;-4.31;81.43
19208;BME280;9737;59.466;18.036;2024-01-15T01:26:41;104465.72;;;-4.37;81.45
19208;BME280;9737;59.466;18.036;2024-01-15T01:29:10;104464.81;;;-4.37;81.42
19208;BME280;9737;59.466;18.036;2024-01-15T01:31:42;104468.41;;;-4.35;81.44
19208;BME280;9737;59.466;18.036;2024-01-15T01:34:10;104468.41;;;-4.35;81.45
19208;BME280;9737;59.466;18.036;2024-01-15T01:36:39;104455.97;;;-4.41;81.43
19208;BME280;9737;59.466;18.036;2024-01-15T01:39:07;104470.19;;;-4.34;81.53
19208;BME280;9737;59.466;18.036;2024-01-15T01:41:35;104470.09;;;-4.36;81.56
19208;BME280;9737;59.466;18.036;2024-01-15T01:44:03;104468.31;;;-4.37;81.48
19208;BME280;9737;59.466;18.036;2024-01-15T01:46:34;104451.69;;;-4.40;81.51
19208;BME280;9737;59.466;18.036;2024-01-15T01:49:06;104439.19;;;-4.47;81.35
19208;BME280;9737;59.466;18.036;2024-01-15T01:51:35;104449.00;;;-4.42;81.39
19208;BME280;9737;59.466;18.036;2024-01-15T01:54:04;104429.75;;;-4.45;81.45
19208;BME280;9737;59.466;18.036;2024-01-15T01:56:35;104422.78;;;-4.46;81.24
19208;BME280;9737;59.466;18.036;2024-01-15T01:59:04;104462.97;;;-4.40;81.39
19208;BME280;9737;59.466;18.036;2024-01-15T02:01:34;104443.81;;;-4.42;81.46
19208;BME280;9737;59.466;18.036;2024-01-15T02:04:03;104441.19;;;-4.42;81.53
19208;BME280;9737;59.466;18.036;2024-01-15T02:06:32;104421.00;;;-4.47;81.42
19208;BME280;9737;59.466;18.036;2024-01-15T02:09:00;104405.25;;;-4.50;81.47
19208;BME280;9737;59.466;18.036;2024-01-15T02:11:29;104392.00;;;-4.55;81.47
19208;BME280;9737;59.466;18.036;2024-01-15T02:13:57;104387.72;;;-4.54;81.54
19208;BME280;9737;59.466;18.036;2024-01-15T02:16:25;104388.69;;;-4.52;81.40
19208;BME280;9737;59.466;18.036;2024-01-15T02:18:54;104369.28;;;-4.59;81.46
19208;BME280;9737;59.466;18.036;2024-01-15T02:21:22;104379.69;;;-4.59;81.58
19208;BME280;9737;59.466;18.036;2024-01-15T02:23:54;104406.06;;;-4.51;81.79
19208;BME280;9737;59.466;18.036;2024-01-15T02:26:22;104392.91;;;-4.54;81.45
19208;BME280;9737;59.466;18.036;2024-01-15T02:28:51;104391.94;;;-4.56;81.21
19208;BME280;9737;59.466;18.036;2024-01-15T02:31:19;104387.72;;;-4.54;81.49
19208;BME280;9737;59.466;18.036;2024-01-15T02:33:47;104381.53;;;-4.56;81.50
19208;BME280;9737;59.466;18.036;2024-01-15T02:36:16;104362.31;;;-4.60;81.29
19208;BME280;9737;59.466;18.036;2024-01-15T02:38:44;104362.22;;;-4.61;81.26
19208;BME280;9737;59.466;18.036;2024-01-15T02:41:13;104368.31;;;-4.61;81.46
19208;BME280;9737;59.466;18.036;2024-01-15T02:43:41;104341.19;;;-4.66;81.51
19208;BME280;9737;59.466;18.036;2024-01-15T02:46:09;104355.25;;;-4.62;81.43
19208;BME280;9737;59.466;18.036;2024-01-15T02:48:37;104357.84;;;-4.62;81.42
19208;BME280;9737;59.466;18.036;2024-01-15T02:51:05;104339.38;;;-4.67;81.56
19208;BME280;9737;59.466;18.036;2024-01-15T02:53:33;104328.91;;;-4.69;81.61
19208;BME280;9737;59.466;18.036;2024-01-15T02:56:01;104335.97;;;-4.66;81.45
19208;BME280;9737;59.466;18.036;2024-01-15T02:58:30;104342.97;;;-4.65;81.46
19208;BME280;9737;59.466;18.036;2024-01-15T03:00:58;104325.44;;;-4.69;81.52
19208;BME280;9737;59.466;18.036;2024-01-15T03:03:26;104332.34;;;-4.70;81.48
19208;BME280;9737;59.466;18.036;2024-01-15T03:05:54;104338.50;;;-4.68;81.67
19208;BME280;9737;59.466;18.036;2024-01-15T03:08:22;104316.66;;;-4.71;81.37
19208;BME280;9737;59.466;18.036;2024-01-15T03:10:50;104307.91;;;-4.73;81.38
19208;BME280;9737;59.466;18.036;2024-01-15T03:13:17;104322.75;;;-4.71;81.46
19208;BME280;9737;59.466;18.036;2024-01-15T03:15:47;104322.75;;;-4.71;81.45
19208;BME280;9737;59.466;18.036;2024-01-15T03:18:15;104310.59;;;-4.72;81.47
19208;BME280;9737;59.466;18.036;2024-01-15T03:20:43;104314.88;;;-4.72;81.45
19208;BME280;9737;59.466;18.036;2024-01-15T03:23:11;104289.50;;;-4.78;81.52
19208;BME280;9737;59.466;18.036;2024-01-15T03:25:38;104284.16;;;-4.81;81.54
19208;BME280;9737;59.466;18.036;2024-01-15T03:28:06;104265.00;;;-4.83;81.36
19208;BME280;9737;59.466;18.036;2024-01-15T03:30:34;104275.38;;;-4.83;81.40
19208;BME280;9737;59.466;18.036;2024-01-15T03:33:07;104278.94;;;-4.81;81.46
19208;BME280;9737;59.466;18.036;2024-01-15T03:35:35;104270.19;;;-4.83;81.55
19208;BME280;9737;59.466;18.036;2024-01-15T03:38:03;104277.25;;;-4.80;81.35
19208;BME280;9737;59.466;18.036;2024-01-15T03:40:30;104271.81;;;-4.85;81.56
19208;BME280;9737;59.466;18.036;2024-01-15T03:42:59;104274.56;;;-4.82;81.41
19208;BME280;9737;59.466;18.036;2024-01-15T03:45:26;104277.16;;;-4.82;81.54
19208;BME280;9737;59.466;18.036;2024-01-15T03:47:54;104264.09;;;-4.83;81.48
19208;BME280;9737;59.466;18.036;2024-01-15T03:50:24;104258.84;;;-4.85;81.33
19208;BME280;9737;59.466;18.036;2024-01-15T03:52:52;104254.47;;;-4.86;81.54
19208;BME280;9737;59.466;18.036;2024-01-15T03:55:19;104263.22;;;-4.84;81.36
19208;BME280;9737;59.466;18.036;2024-01-15T03:57:47;104252.53;;;-4.90;81.59
19208;BME280;9737;59.466;18.036;2024-01-15T04:00:16;104250.88;;;-4.88;81.53
19208;BME280;9737;59.466;18.036;2024-01-15T04:02:44;104247.31;;;-4.90;81.54
19208;BME280;9737;59.466;18.036;2024-01-15T04:05:12;104226.22;;;-4.96;81.50
19208;BME280;9737;59.466;18.036;2024-01-15T04:07:41;104238.53;;;-4.92;81.57
19208;BME280;9737;59.466;18.036;2024-01-15T04:10:09;104247.41;;;-4.88;81.63
19208;BME280;9737;59.466;18.036;2024-01-15T04:12:37;104221.00;;;-4.96;81.35
19208;BME280;9737;59.466;18.036;2024-01-15T04:15:05;104205.13;;;-5.02;81.75
19208;BME280;9737;59.466;18.036;2024-01-15T04:17:33;104225.47;;;-4.93;81.65
19208;BME280;9737;59.466;18.036;2024-01-15T04:20:01;104221.00;;;-4.96;81.50
19208;BME280;9737;59.466;18.036;2024-01-15T04:22:29;104214.03;;;-4.97;81.40
19208;BME280;9737;59.466;18.036;2024-01-15T04:24:58;104209.75;;;-4.96;81.46
19208;BME280;9737;59.466;18.036;2024-01-15T04:27:26;104202.69;;;-4.99;81.52
19208;BME280;9737;59.466;18.036;2024-01-15T04:29:54;104214.03;;;-4.97;81.42
19208;BME280;9737;59.466;18.036;2024-01-15T04:32:22;104207.88;;;-4.99;81.60
19208;BME280;9737;59.466;18.036;2024-01-15T04:34:50;104189.56;;;-5.02;81.38
19208;BME280;9737;59.466;18.036;2024-01-15T04:37:18;104186.06;;;-5.03;81.50
19208;BME280;9737;59.466;18.036;2024-01-15T04:39:46;104158.91;;;-5.09;81.65
19208;BME280;9737;59.466;18.036;2024-01-15T04:42:15;104163.28;;;-5.08;81.39
19208;BME280;9737;59.466;18.036;2024-01-15T04:44:43;104157.13;;;-5.10;81.28
19208;BME280;9737;59.466;18.036;2024-01-15T04:47:10;104164.03;;;-5.11;81.45
19208;BME280;9737;59.466;18.036;2024-01-15T04:49:38;104151.94;;;-5.10;81.45
19208;BME280;9737;59.466;18.036;2024-01-15T04:52:06;104163.28;;;-5.08;81.34
19208;BME280;9737;59.466;18.036;2024-01-15T04:54:36;104164.91;;;-5.10;81.55
19208;BME280;9737;59.466;18.036;2024-01-15T04:57:04;104171.16;;;-5.07;81.48
19208;BME280;9737;59.466;18.036;2024-01-15T04:59:33;104178.13;;;-5.06;81.30
19208;BME280;9737;59.466;18.036;2024-01-15T05:02:01;104171.22;;;-5.05;81.32
19208;BME280;9737;59.466;18.036;2024-01-15T05:04:29;104162.41;;;-5.09;81.54
19208;BME280;9737;59.466;18.036;2024-01-15T05:06:57;104185.09;;;-5.05;81.61
19208;BME280;9737;59.466;18.036;2024-01-15T05:09:25;104154.53;;;-5.10;81.40
19208;BME280;9737;59.466;18.036;2024-01-15T05:11:57;104135.25;;;-5.15;81.53
19208;BME280;9737;59.466;18.036;2024-01-15T05:14:24;104140.44;;;-5.15;81.57
19208;BME280;9737;59.466;18.036;2024-01-15T05:16:54;104145.63;;;-5.15;81.60
19208;BME280;9737;59.466;18.036;2024-01-15T05:19:21;104138.66;;;-5.16;81.37
19208;BME280;9737;59.466;18.036;2024-01-15T05:21:49;104136.13;;;-5.15;81.54
19208;BME280;9737;59.466;18.036;2024-01-15T05:24:17;104130.78;;;-5.18;81.21
19208;BME280;9737;59.466;18.036;2024-01-15T05:26:45;104142.16;;;-5.16;81.37
19208;BME280;9737;59.466;18.036;2024-01-15T05:29:13;104133.47;;;-5.16;81.35
19208;BME280;9737;59.466;18.036;2024-01-15T05:31:41;104124.44;;;-5.23;81.44
19208;BME280;9737;59.466;18.036;2024-01-15T05:34:10;104141.31;;;-5.15;81.26
19208;BME280;9737;59.466;18.036;2024-01-15T05:36:38;104128.28;;;-5.16;81.35
19208;BME280;9737;59.466;18.036;2024-01-15T05:39:06;104129.91;;;-5.18;81.53
19208;BME280;9737;59.466;18.036;2024-01-15T05:41:34;104114.16;;;-5.21;81.31
19208;BME280;9737;59.466;18.036;2024-01-15T05:44:02;104109.84;;;-5.21;81.57
19208;BME280;9737;59.466;18.036;2024-01-15T05:46:30;104098.41;;;-5.24;81.60
19208;BME280;9737;59.466;18.036;2024-01-15T05:48:58;104110.78;;;-5.20;81.39
19208;BME280;9737;59.466;18.036;2024-01-15T05:51:27;104096.63;;;-5.25;81.52
19208;BME280;9737;59.466;18.036;2024-01-15T05:53:55;104113.25;;;-5.22;81.71
19208;BME280;9737;59.466;18.036;2024-01-15T05:56:23;104088.84;;;-5.25;81.33
19208;BME280;9737;59.466;18.036;2024-01-15T05:58:52;104097.53;;;-5.25;81.12
19208;BME280;9737;59.466;18.036;2024-01-15T06:01:20;104101.84;;;-5.25;81.20
19208;BME280;9737;59.466;18.036;2024-01-15T06:03:48;104077.34;;;-5.31;81.10
19208;BME280;9737;59.466;18.036;2024-01-15T06:06:16;104070.38;;;-5.32;81.33
19208;BME280;9737;59.466;18.036;2024-01-15T06:08:45;104059.03;;;-5.34;81.49
19208;BME280;9737;59.466;18.036;2024-01-15T06:11:13;104060.69;;;-5.36;81.42
19208;BME280;9737;59.466;18.036;2024-01-15T06:13:41;104051.94;;;-5.38;81.13
19208;BME280;9737;59.466;18.036;2024-01-15T06:16:13;104050.22;;;-5.37;81.40
19208;BME280;9737;59.466;18.036;2024-01-15T06:18:41;104042.38;;;-5.39;81.55
19208;BME280;9737;59.466;18.036;2024-01-15T06:21:09;104029.25;;;-5.42;81.13
19208;BME280;9737;59.466;18.036;2024-01-15T06:23:39;104047.56;;;-5.39;81.33
19208;BME280;9737;59.466;18.036;2024-01-15T06:26:08;104008.25;;;-5.46;81.48
19208;BME280;9737;59.466;18.036;2024-01-15T06:28:36;104013.38;;;-5.48;81.32
19208;BME280;9737;59.466;18.036;2024-01-15T06:31:06;104009.16;;;-5.46;81.27
19208;BME280;9737;59.466;18.036;2024-01-15T06:33:34;104001.22;;;-5.49;81.37
19208;BME280;9737;59.466;18.036;2024-01-15T06:36:03;104016.13;;;-5.45;81.56
19208;BME280;9737;59.466;18.036;2024-01-15T06:38:31;104024.06;;;-5.42;81.24
19208;BME280;9737;59.466;18.036;2024-01-15T06:40:58;104006.47;;;-5.47;81.12
19208;BME280;9737;59.466;18.036;2024-01-15T06:43:28;103979.31;;;-5.54;81.35
19208;BME280;9737;59.466;18.036;2024-01-15T06:45:55;103976.72;;;-5.54;81.40
19208;BME280;9737;59.466;18.036;2024-01-15T06:48:23;103974.88;;;-5.56;81.21
19208;BME280;9737;59.466;18.036;2024-01-15T06:50:51;103982.81;;;-5.53;81.59
19208;BME280;9737;59.466;18.036;2024-01-15T06:53:19;103958.41;;;-5.57;81.39
19208;BME280;9737;59.466;18.036;2024-01-15T06:55:47;103955.69;;;-5.60;81.24
19208;BME280;9737;59.466;18.036;2024-01-15T06:58:15;103956.56;;;-5.59;81.35
19208;BME280;9737;59.466;18.036;2024-01-15T07:00:44;103961.84;;;-5.58;81.37
19208;BME280;9737;59.466;18.036;2024-01-15T07:03:12;103965.38;;;-5.56;81.32
19208;BME280;9737;59.466;18.036;2024-01-15T07:05:42;103962.66;;;-5.59;81.43
19208;BME280;9737;59.466;18.036;2024-01-15T07:08:10;103945.16;;;-5.63;81.10
19208;BME280;9737;59.466;18.036;2024-01-15T07:10:38;103930.47;;;-5.63;81.24
19208;BME280;9737;59.466;18.036;2024-01-15T07:13:06;103946.13;;;-5.61;81.32
19208;BME280;9737;59.466;18.036;2024-01-15T07:15:34;103930.41;;;-5.64;81.42
19208;BME280;9737;59.466;18.036;2024-01-15T07:18:04;103934.78;;;-5.63;81.34
19208;BME280;9737;59.466;18.036;2024-01-15T07:20:32;103937.38;;;-5.63;81.29
19208;BME280;9737;59.466;18.036;2024-01-15T07:23:04;103961.84;;;-5.58;81.30
19208;BME280;9737;59.466;18.036;2024-01-15T07:25:32;103936.50;;;-5.64;81.28
19208;BME280;9737;59.466;18.036;2024-01-15T07:28:00;103935.59;;;-5.64;81.22
19208;BME280;9737;59.466;18.036;2024-01-15T07:30:28;103939.16;;;-5.62;81.21
19208;BME280;9737;59.466;18.036;2024-01-15T07:32:56;103949.69;;;-5.59;81.29
19208;BME280;9737;59.466;18.036;2024-01-15T07:35:25;103958.28;;;-5.60;80.94
19208;BME280;9737;59.466;18.036;2024-01-15T07:37:53;103959.22;;;-5.58;81.09
19208;BME280;9737;59.466;18.036;2024-01-15T07:40:21;103952.19;;;-5.61;81.27
19208;BME280;9737;59.466;18.036;2024-01-15T07:42:49;103961.84;;;-5.58;81.60
19208;BME280;9737;59.466;18.036;2024-01-15T07:45:17;103940.94;;;-5.61;81.32
19208;BME280;9737;59.466;18.036;2024-01-15T07:47:45;103956.66;;;-5.58;81.12
19208;BME280;9737;59.466;18.036;2024-01-15T07:50:13;103963.47;;;-5.60;81.32
19208;BME280;9737;59.466;18.036;2024-01-15T07:52:42;103935.59;;;-5.64;81.18
19208;BME280;9737;59.466;18.036;2024-01-15T07:55:10;103952.28;;;-5.59;81.24
19208;BME280;9737;59.466;18.036;2024-01-15T07:57:38;103936.56;;;-5.62;81.11
19208;BME280;9737;59.466;18.036;2024-01-15T08:00:07;103939.16;;;-5.62;81.27
19208;BME280;9737;59.466;18.036;2024-01-15T08:02:36;103946.94;;;-5.62;81.29
19208;BME280;9737;59.466;18.036;2024-01-15T08:05:04;103951.31;;;-5.61;81.22
19208;BME280;9737;59.466;18.036;2024-01-15T08:07:32;103968.06;;;-5.54;81.27
19208;BME280;9737;59.466;18.036;2024-01-15T08:10:01;103980.22;;;-5.53;81.26
19208;BME280;9737;59.466;18.036;2024-01-15T08:12:29;103988.06;;;-5.52;81.21
19208;BME280;9737;59.466;18.036;2024-01-15T08:14:57;103998.50;;;-5.50;81.04
19208;BME280;9737;59.466;18.036;2024-01-15T08:17:25;104000.47;;;-5.46;81.25
19208;BME280;9737;59.466;18.036;2024-01-15T08:19:55;104013.53;;;-5.45;81.33
19208;BME280;9737;59.466;18.036;2024-01-15T08:22:23;104018.88;;;-5.42;81.44
19208;BME280;9737;59.466;18.036;2024-01-15T08:24:51;104016.13;;;-5.45;81.16
19208;BME280;9737;59.466;18.036;2024-01-15T08:27:24;104012.72;;;-5.44;81.19
19208;BME280;9737;59.466;18.036;2024-01-15T08:29:52;104037.16;;;-5.39;81.32
19208;BME280;9737;59.466;18.036;2024-01-15T08:32:20;104035.41;;;-5.40;81.27
19208;BME280;9737;59.466;18.036;2024-01-15T08:34:47;104017.69;;;-5.48;81.29
19208;BME280;9737;59.466;18.036;2024-01-15T08:37:18;104046.81;;;-5.36;81.08
19208;BME280;9737;59.466;18.036;2024-01-15T08:39:47;104062.69;;;-5.30;81.52
19208;BME280;9737;59.466;18.036;2024-01-15T08:42:18;104073.22;;;-5.27;81.19
19208;BME280;9737;59.466;18.036;2024-01-15T08:44:47;104086.25;;;-5.25;81.12
19208;BME280;9737;59.466;18.036;2024-01-15T08:47:14;104080.91;;;-5.28;81.10
19208;BME280;9737;59.466;18.036;2024-01-15T08:49:43;104077.34;;;-5.31;81.21
19208;BME280;9737;59.466;18.036;2024-01-15T08:52:13;104100.28;;;-5.22;81.04
19208;BME280;9737;59.466;18.036;2024-01-15T08:54:41;104088.03;;;-5.24;80.93
19208;BME280;9737;59.466;18.036;2024-01-15T08:57:09;104101.09;;;-5.23;81.23
19208;BME280;9737;59.466;18.036;2024-01-15T08:59:38;104134.34;;;-5.16;81.36
19208;BME280;9737;59.466;18.036;2024-01-15T09:02:07;104136.28;;;-5.12;81.11
19208;BME280;9737;59.466;18.036;2024-01-15T09:04:35;104179.16;;;-5.02;81.08
19208;BME280;9737;59.466;18.036;2024-01-15T09:07:03;104158.09;;;-5.08;81.16
19208;BME280;9737;59.466;18.036;2024-01-15T09:09:31;104155.50;;;-5.08;80.97
19208;BME280;9737;59.466;18.036;2024-01-15T09:11:59;104170.34;;;-5.06;80.78
19208;BME280;9737;59.466;18.036;2024-01-15T09:14:27;104173.97;;;-5.02;81.00
19208;BME280;9737;59.466;18.036;2024-01-15T09:17:04;104158.16;;;-5.07;81.24
19208;BME280;9737;59.466;18.036;2024-01-15T09:19:33;104154.69;;;-5.07;81.12
19208;BME280;9737;59.466;18.036;2024-01-15T09:22:01;104158.97;;;-5.08;80.99
19208;BME280;9737;59.466;18.036;2024-01-15T09:24:29;104196.69;;;-4.98;81.08
19208;BME280;9737;59.466;18.036;2024-01-15T09:26:57;104220.28;;;-4.93;81.08
19208;BME280;9737;59.466;18.036;2024-01-15T09:29:25;104212.56;;;-4.92;81.00
19208;BME280;9737;59.466;18.036;2024-01-15T09:31:53;104230.84;;;-4.90;81.26
19208;BME280;9737;59.466;18.036;2024-01-15T09:34:21;104230.09;;;-4.88;81.11
19208;BME280;9737;59.466;18.036;2024-01-15T09:36:50;104212.41;;;-4.95;80.90
19208;BME280;9737;59.466;18.036;2024-01-15T09:39:18;104196.44;;;-5.03;80.85
19208;BME280;9737;59.466;18.036;2024-01-15T09:41:47;104230.84;;;-4.90;81.00
19208;BME280;9737;59.466;18.036;2024-01-15T09:44:16;104226.53;;;-4.90;81.02
19208;BME280;9737;59.466;18.036;2024-01-15T09:46:45;104245.84;;;-4.85;81.17
19208;BME280;9737;59.466;18.036;2024-01-15T09:49:16;104259.00;;;-4.82;80.99
19208;BME280;9737;59.466;18.036;2024-01-15T09:51:45;104252.81;;;-4.84;80.99
19208;BME280;9737;59.466;18.036;2024-01-15T09:54:29;104268.56;;;-4.81;80.99
19208;BME280;9737;59.466;18.036;2024-01-15T09:56:59;104256.38;;;-4.82;81.07
19208;BME280;9737;59.466;18.036;2024-01-15T09:59:28;104272.94;;;-4.80;81.01
19208;BME280;9737;59.466;18.036;2024-01-15T10:01:57;104259.88;;;-4.81;80.73
19208;BME280;9737;59.466;18.036;2024-01-15T10:04:26;104206.41;;;-4.94;80.97
19208;BME280;9737;59.466;18.036;2024-01-15T10:06:57;104210.63;;;-4.96;81.15
19208;BME280;9737;59.466;18.036;2024-01-15T10:09:30;104194.09;;;-4.98;81.16
19208;BME280;9737;59.466;18.036;2024-01-15T10:11:59;104199.19;;;-5.00;81.07
19208;BME280;9737;59.466;18.036;2024-01-15T10:14:27;104217.75;;;-4.92;81.12
19208;BME280;9737;59.466;18.036;2024-01-15T10:16:55;104221.16;;;-4.93;80.98
19208;BME280;9737;59.466;18.036;2024-01-15T10:19:23;104204.53;;;-4.96;81.00
19208;BME280;9737;59.466;18.036;2024-01-15T10:21:51;104201.94;;;-4.96;81.14
19208;BME280;9737;59.466;18.036;2024-01-15T10:24:18;104190.53;;;-5.00;80.80
19208;BME280;9737;59.466;18.036;2024-01-15T10:26:48;104166.84;;;-5.06;81.08
19208;BME280;9737;59.466;18.036;2024-01-15T10:29:15;104180.94;;;-5.01;80.92
19208;BME280;9737;59.466;18.036;2024-01-15T10:31:44;104189.63;;;-5.01;80.90
19208;BME280;9737;59.466;18.036;2024-01-15T10:34:13;104217.75;;;-4.92;80.85
19208;BME280;9737;59.466;18.036;2024-01-15T10:36:45;104263.28;;;-4.82;81.18
19208;BME280;9737;59.466;18.036;2024-01-15T10:39:15;104287.88;;;-4.76;81.02
19208;BME280;9737;59.466;18.036;2024-01-15T10:41:43;104295.00;;;-4.72;80.89
19208;BME280;9737;59.466;18.036;2024-01-15T10:44:12;104309.03;;;-4.68;80.75
19208;BME280;9737;59.466;18.036;2024-01-15T10:46:40;104272.94;;;-4.80;80.88
19208;BME280;9737;59.466;18.036;2024-01-15T10:49:09;104313.34;;;-4.69;80.86
19208;BME280;9737;59.466;18.036;2024-01-15T10:51:39;104337.94;;;-4.62;80.94
19208;BME280;9737;59.466;18.036;2024-01-15T10:54:09;104320.31;;;-4.68;80.91
19208;BME280;9737;59.466;18.036;2024-01-15T10:56:39;104301.09;;;-4.71;80.82
19208;BME280;9737;59.466;18.036;2024-01-15T10:59:07;104280.00;;;-4.77;80.85
19208;BME280;9737;59.466;18.036;2024-01-15T11:01:38;104345.81;;;-4.60;80.84
19208;BME280;9737;59.466;18.036;2024-01-15T11:04:07;104344.94;;;-4.61;80.63
19208;BME280;9737;59.466;18.036;2024-01-15T11:06:42;104342.25;;;-4.62;80.88
19208;BME280;9737;59.466;18.036;2024-01-15T11:09:11;104352.81;;;-4.59;80.74
19208;BME280;9737;59.466;18.036;2024-01-15T11:11:43;104350.19;;;-4.59;81.02
19208;BME280;9737;59.466;18.036;2024-01-15T11:14:33;104364.25;;;-4.56;80.81
19208;BME280;9737;59.466;18.036;2024-01-15T11:17:02;104359.94;;;-4.55;80.80
19208;BME280;9737;59.466;18.036;2024-01-15T11:19:38;104379.25;;;-4.50;80.84
19208;BME280;9737;59.466;18.036;2024-01-15T11:24:56;104354.50;;;-4.60;80.85
19208;BME280;9737;59.466;18.036;2024-01-15T11:27:55;104337.13;;;-4.61;80.86
19208;BME280;9737;59.466;18.036;2024-01-15T11:30:24;104315.03;;;-4.69;80.80
19208;BME280;9737;59.466;18.036;2024-01-15T11:32:54;104276.50;;;-4.78;80.92
19208;BME280;9737;59.466;18.036;2024-01-15T11:35:22;104301.81;;;-4.74;80.64
19208;BME280;9737;59.466;18.036;2024-01-15T11:37:57;104266.94;;;-4.79;80.82
19208;BME280;9737;59.466;18.036;2024-01-15T11:40:39;104284.31;;;-4.78;80.69
19208;BME280;9737;59.466;18.036;2024-01-15T11:43:09;104273.91;;;-4.78;80.65
19208;BME280;9737;59.466;18.036;2024-01-15T11:45:39;104259.94;;;-4.80;80.70
19208;BME280;9737;59.466;18.036;2024-01-15T11:48:18;104267.81;;;-4.78;80.62
19208;BME280;9737;59.466;18.036;2024-01-15T11:50:49;104261.50;;;-4.83;80.67
19208;BME280;9737;59.466;18.036;2024-01-15T11:53:27;104240.66;;;-4.85;80.73
19208;BME280;9737;59.466;18.036;2024-01-15T11:55:58;104256.38;;;-4.82;80.79
19208;BME280;9737;59.466;18.036;2024-01-15T11:58:27;104233.53;;;-4.89;80.73
19208;BME280;9737;59.466;18.036;2024-01-15T12:00:54;104239.75;;;-4.85;80.77
19208;BME280;9737;59.466;18.036;2024-01-15T12:03:24;104274.72;;;-4.79;80.56
19208;BME280;9737;59.466;18.036;2024-01-15T12:05:53;104242.94;;;-4.91;80.74
19208;BME280;9737;59.466;18.036;2024-01-15T12:08:21;104241.53;;;-4.84;80.50
19208;BME280;9737;59.466;18.036;2024-01-15T12:10:50;104213.47;;;-4.91;80.63
19208;BME280;9737;59.466;18.036;2024-01-15T12:13:18;104222.25;;;-4.89;80.72
19208;BME280;9737;59.466;18.036;2024-01-15T12:15:47;104193.25;;;-4.97;80.61
19208;BME280;9737;59.466;18.036;2024-01-15T12:18:17;104176.66;;;-5.01;80.70
19208;BME280;9737;59.466;18.036;2024-01-15T12:20:47;104191.47;;;-4.98;80.46
19208;BME280;9737;59.466;18.036;2024-01-15T12:23:16;104193.13;;;-5.00;80.72
19208;BME280;9737;59.466;18.036;2024-01-15T12:25:45;104184.50;;;-4.99;80.60
19208;BME280;9737;59.466;18.036;2024-01-15T12:28:15;104180.13;;;-5.00;80.47
19208;BME280;9737;59.466;18.036;2024-01-15T12:30:46;104153.78;;;-5.08;80.65
19208;BME280;9737;59.466;18.036;2024-01-15T12:33:17;104168.72;;;-5.04;80.45
19208;BME280;9737;59.466;18.036;2024-01-15T12:35:47;104143.34;;;-5.09;80.62
19208;BME280;9737;59.466;18.036;2024-01-15T12:38:15;104147.72;;;-5.08;80.52
19208;BME280;9737;59.466;18.036;2024-01-15T12:40:43;104126.66;;;-5.14;80.09
19208;BME280;9737;59.466;18.036;2024-01-15T12:43:14;104145.03;;;-5.10;80.51
19208;BME280;9737;59.466;18.036;2024-01-15T12:45:42;104133.69;;;-5.12;80.39
19208;BME280;9737;59.466;18.036;2024-01-15T12:48:10;104138.81;;;-5.13;80.41
19208;BME280;9737;59.466;18.036;2024-01-15T12:50:42;104111.88;;;-5.15;80.46
19208;BME280;9737;59.466;18.036;2024-01-15T12:53:11;104123.22;;;-5.13;80.44
19208;BME280;9737;59.466;18.036;2024-01-15T12:55:39;104144.16;;;-5.10;80.64
19208;BME280;9737;59.466;18.036;2024-01-15T12:58:07;104142.50;;;-5.08;80.48
19208;BME280;9737;59.466;18.036;2024-01-15T13:00:35;104141.56;;;-5.10;80.47